Time;durP1;ratioP1;P1;durP2;ratioP2;P2;SDS_P1;SDS_P2;PMS_P1;PMS_P2;Temp;Humidity;BMP_temperature;BMP_pressure;BME280_temperature;BME280_humidity;BME280_pressure;Samples;Min_cycle;Max_cycle;Signal;HPM_P1;HPM_P2
2023/06/28 00:01:00;;;;;;;4.20;1.80;;;19.90;74.70;;;;;;5045351;28;20056;-74
2023/06/28 00:03:26;;;;;;;4.97;2.00;;;19.90;74.70;;;;;;5044263;28;20100;-73
2023/06/28 00:05:52;;;;;;;3.22;1.90;;;19.80;74.40;;;;;;5043732;28;20442;-74
2023/06/28 00:08:18;;;;;;;4.55;2.10;;;19.80;74.60;;;;;;5043020;28;20029;-74
2023/06/28 00:10:44;;;;;;;3.20;1.63;;;19.80;74.70;;;;;;5050477;28;20023;-74
2023/06/28 00:13:10;;;;;;;4.53;2.30;;;19.80;74.70;;;;;;5049007;28;20025;-74
2023/06/28 00:15:35;;;;;;;5.00;2.10;;;19.70;74.70;;;;;;5051016;28;20027;-74
2023/06/28 00:18:02;;;;;;;2.53;1.75;;;19.70;74.70;;;;;;5044175;28;20029;-74
2023/06/28 00:20:28;;;;;;;5.25;1.70;;;19.70;74.60;;;;;;5052923;28;20365;-75
2023/06/28 00:22:55;;;;;;;5.35;2.05;;;19.70;74.40;;;;;;5048547;28;20100;-74
2023/06/28 00:25:20;;;;;;;4.97;2.28;;;19.70;74.30;;;;;;5067428;28;20021;-75
2023/06/28 00:27:46;;;;;;;7.50;2.97;;;19.70;75.70;;;;;;5053079;28;20364;-75
2023/06/28 00:30:13;;;;;;;4.80;1.70;;;19.70;75.70;;;;;;5049588;28;20029;-74
2023/06/28 00:32:39;;;;;;;4.18;2.22;;;19.70;75.40;;;;;;5047518;28;20720;-74
2023/06/28 00:35:06;;;;;;;4.10;2.10;;;19.60;75.10;;;;;;5047289;28;20051;-74
2023/06/28 00:37:32;;;;;;;5.97;1.98;;;19.60;75.00;;;;;;5048873;28;20103;-75
2023/06/28 00:39:59;;;;;;;5.03;2.53;;;19.60;75.10;;;;;;5050313;28;20032;-74
2023/06/28 00:42:25;;;;;;;4.40;2.10;;;19.60;74.90;;;;;;5048132;28;20024;-74
2023/06/28 00:44:51;;;;;;;4.20;2.00;;;19.60;74.70;;;;;;5050779;28;20047;-73
2023/06/28 00:47:18;;;;;;;4.47;2.30;;;19.60;74.60;;;;;;5050238;28;20103;-74
2023/06/28 00:49:45;;;;;;;4.72;1.88;;;19.60;74.50;;;;;;5045053;28;20122;-74
2023/06/28 00:52:12;;;;;;;3.55;2.05;;;19.50;74.30;;;;;;5049169;28;20502;-74
2023/06/28 00:54:40;;;;;;;3.60;2.05;;;19.50;74.20;;;;;;5048455;28;20033;-74
2023/06/28 00:57:08;;;;;;;4.05;1.83;;;19.50;74.30;;;;;;5052034;28;20033;-74
2023/06/28 00:59:35;;;;;;;3.95;1.95;;;19.60;74.30;;;;;;5050461;28;20445;-73
2023/06/28 01:02:02;;;;;;;3.47;1.77;;;19.50;74.20;;;;;;5050773;28;20086;-73
2023/06/28 01:04:27;;;;;;;3.97;1.90;;;19.50;74.20;;;;;;5050154;28;20093;-71
2023/06/28 01:06:55;;;;;;;4.95;1.63;;;19.50;74.40;;;;;;5047585;28;20474;-72
2023/06/28 01:09:24;;;;;;;4.63;1.70;;;19.50;74.50;;;;;;5048625;28;20034;-72
2023/06/28 01:11:52;;;;;;;5.18;2.25;;;19.40;74.40;;;;;;5048462;28;20037;-73
2023/06/28 01:14:19;;;;;;;3.65;2.10;;;19.40;74.30;;;;;;5049989;28;20160;-74
2023/06/28 01:16:55;;;;;;;8.40;2.10;;;19.40;74.40;;;;;;5047116;28;20021;-74
2023/06/28 01:19:25;;;;;;;3.50;1.80;;;19.50;74.10;;;;;;5048234;28;20036;-74
2023/06/28 01:22:02;;;;;;;6.07;1.60;;;19.50;74.10;;;;;;5048417;28;20017;-74
2023/06/28 01:24:28;;;;;;;3.15;1.92;;;19.40;74.10;;;;;;5047360;28;20043;-73
2023/06/28 01:26:54;;;;;;;4.45;2.03;;;19.40;74.00;;;;;;5043396;28;20028;-73
2023/06/28 01:29:21;;;;;;;2.92;1.75;;;19.40;74.00;;;;;;5051557;28;20141;-73
2023/06/28 01:31:51;;;;;;;5.93;1.90;;;19.40;73.90;;;;;;5044829;28;20041;-73
2023/06/28 01:34:17;;;;;;;5.45;2.10;;;19.40;73.80;;;;;;5056993;28;20087;-73
2023/06/28 01:36:44;;;;;;;5.65;2.08;;;19.40;74.20;;;;;;5051853;28;20029;-73
2023/06/28 01:39:10;;;;;;;3.85;2.00;;;19.40;74.30;;;;;;5049451;28;20028;-73
2023/06/28 01:41:37;;;;;;;5.68;2.17;;;19.40;74.20;;;;;;5044408;28;20051;-73
2023/06/28 01:44:03;;;;;;;2.88;1.70;;;19.40;74.30;;;;;;5047026;28;20108;-73
2023/06/28 01:46:30;;;;;;;3.45;1.83;;;19.40;74.30;;;;;;5045705;28;20104;-73
2023/06/28 01:48:56;;;;;;;3.97;1.80;;;19.40;74.70;;;;;;5050923;28;20060;-73
2023/06/28 01:51:22;;;;;;;3.63;1.70;;;19.40;74.40;;;;;;5046894;28;20043;-73
2023/06/28 01:53:47;;;;;;;4.72;2.00;;;19.30;74.50;;;;;;5049728;28;20033;-72
2023/06/28 01:56:13;;;;;;;4.80;1.90;;;19.40;74.60;;;;;;5046584;28;20028;-72
2023/06/28 01:58:38;;;;;;;5.47;2.17;;;19.30;74.60;;;;;;5050520;28;20501;-73
2023/06/28 02:01:04;;;;;;;4.75;2.20;;;19.30;75.10;;;;;;5044924;28;20032;-74
2023/06/28 02:03:31;;;;;;;4.30;2.00;;;19.30;75.80;;;;;;5048751;28;20048;-75
2023/06/28 02:05:56;;;;;;;3.70;1.75;;;19.30;76.30;;;;;;5049967;28;20017;-75
2023/06/28 02:08:22;;;;;;;3.95;2.05;;;19.30;76.40;;;;;;5047741;28;20052;-75
2023/06/28 02:10:48;;;;;;;3.53;1.80;;;19.30;76.50;;;;;;5048704;28;20052;-77
2023/06/28 02:13:13;;;;;;;4.45;2.10;;;19.30;76.80;;;;;;5051785;28;20025;-76
2023/06/28 02:15:41;;;;;;;3.70;2.10;;;19.20;77.70;;;;;;5041478;28;20184;-75
2023/06/28 02:18:07;;;;;;;7.35;2.47;;;19.20;78.50;;;;;;5049387;28;20373;-75
2023/06/28 02:20:33;;;;;;;4.93;1.80;;;19.10;80.00;;;;;;5051000;28;20020;-75
2023/06/28 02:22:58;;;;;;;4.63;1.98;;;19.00;79.50;;;;;;5048844;28;20013;-75
2023/06/28 02:25:27;;;;;;;3.25;1.65;;;18.90;79.50;;;;;;5050799;28;20494;-74
2023/06/28 02:27:53;;;;;;;4.60;2.17;;;18.80;78.90;;;;;;5050207;28;20503;-74
2023/06/28 02:30:19;;;;;;;4.35;1.95;;;18.60;79.40;;;;;;5049460;28;20017;-74
2023/06/28 02:32:44;;;;;;;5.45;2.00;;;18.60;80.00;;;;;;5050816;28;20035;-77
2023/06/28 02:35:10;;;;;;;5.55;1.90;;;18.40;80.40;;;;;;5045848;28;21791;-75
2023/06/28 02:37:35;;;;;;;3.47;1.95;;;18.30;80.20;;;;;;5048916;28;20061;-74
2023/06/28 02:40:02;;;;;;;4.38;2.13;;;18.30;80.50;;;;;;5048364;28;20040;-77
2023/06/28 02:42:28;;;;;;;3.45;1.58;;;18.30;80.30;;;;;;5051345;28;20569;-78
2023/06/28 02:44:53;;;;;;;5.97;1.80;;;18.20;80.30;;;;;;5048370;28;20069;-74
2023/06/28 02:47:19;;;;;;;5.38;2.47;;;18.20;80.40;;;;;;5044753;28;20032;-78
2023/06/28 02:49:44;;;;;;;4.07;1.77;;;18.20;80.10;;;;;;5047388;28;20380;-78
2023/06/28 02:52:11;;;;;;;4.28;1.77;;;18.20;80.20;;;;;;5044830;28;20502;-78
2023/06/28 02:54:37;;;;;;;9.63;2.35;;;18.20;80.20;;;;;;5055953;28;20495;-78
2023/06/28 02:57:03;;;;;;;5.28;2.55;;;18.20;80.00;;;;;;5052666;28;20033;-78
2023/06/28 02:59:28;;;;;;;4.82;2.15;;;18.20;80.00;;;;;;5056434;28;20375;-77
2023/06/28 03:01:54;;;;;;;6.32;2.10;;;18.20;80.20;;;;;;5053646;28;20073;-77
2023/06/28 03:04:19;;;;;;;5.97;2.25;;;18.20;80.30;;;;;;5059042;28;20472;-77
2023/06/28 03:06:49;;;;;;;8.00;2.28;;;18.20;80.60;;;;;;5056207;28;20507;-77
2023/06/28 03:09:14;;;;;;;4.65;1.92;;;18.20;81.00;;;;;;5062648;28;20070;-77
2023/06/28 03:11:40;;;;;;;5.63;1.60;;;18.20;81.20;;;;;;5059198;28;20033;-77
2023/06/28 03:14:05;;;;;;;4.35;2.75;;;18.20;81.20;;;;;;5057624;28;20043;-77
2023/06/28 03:16:31;;;;;;;2.78;1.75;;;18.20;81.40;;;;;;5057041;28;20153;-77
2023/06/28 03:18:57;;;;;;;4.97;1.98;;;18.20;81.70;;;;;;5053185;28;20029;-78
2023/06/28 03:21:22;;;;;;;10.82;2.47;;;18.20;82.00;;;;;;5058067;28;20208;-78
2023/06/28 03:23:48;;;;;;;4.20;1.95;;;18.20;82.10;;;;;;5052108;28;20024;-76
2023/06/28 03:26:13;;;;;;;4.07;2.20;;;18.20;82.10;;;;;;5055069;28;20021;-77
2023/06/28 03:28:39;;;;;;;4.78;2.55;;;18.10;82.30;;;;;;5055653;28;20475;-77
2023/06/28 03:31:04;;;;;;;3.72;2.00;;;18.20;82.40;;;;;;5052140;28;20104;-75
2023/06/28 03:33:30;;;;;;;3.90;1.70;;;18.10;82.60;;;;;;5047476;28;20021;-76
2023/06/28 03:35:56;;;;;;;6.13;2.15;;;18.10;82.80;;;;;;5055828;28;20392;-76
2023/06/28 03:38:21;;;;;;;9.77;2.40;;;18.10;82.90;;;;;;5055584;28;20024;-76
2023/06/28 03:40:47;;;;;;;8.32;2.55;;;18.00;83.00;;;;;;5049756;28;20083;-76
2023/06/28 03:43:12;;;;;;;4.65;2.28;;;18.00;83.20;;;;;;5051452;28;20116;-76
2023/06/28 03:45:38;;;;;;;9.32;2.63;;;18.00;83.30;;;;;;5043235;28;20342;-76
2023/06/28 03:48:04;;;;;;;3.17;1.75;;;18.00;83.10;;;;;;5049817;28;20488;-77
2023/06/28 03:50:29;;;;;;;3.10;1.92;;;18.00;82.90;;;;;;5053816;28;20025;-76
2023/06/28 03:52:55;;;;;;;4.35;2.17;;;18.00;82.80;;;;;;5056744;28;20539;-77
2023/06/28 03:55:21;;;;;;;6.55;2.50;;;18.00;82.80;;;;;;5052323;28;20048;-77
2023/06/28 03:57:46;;;;;;;6.28;1.95;;;18.00;82.80;;;;;;5052322;28;20424;-76
2023/06/28 04:00:12;;;;;;;5.05;2.22;;;18.00;83.60;;;;;;5052552;28;20543;-77
2023/06/28 04:02:39;;;;;;;4.43;2.38;;;18.00;83.10;;;;;;5051496;28;20345;-76
2023/06/28 04:05:05;;;;;;;4.53;1.92;;;18.00;83.10;;;;;;5062546;28;20040;-76
2023/06/28 04:07:31;;;;;;;4.05;2.10;;;18.00;83.10;;;;;;5053357;28;20391;-77
2023/06/28 04:09:56;;;;;;;6.75;2.55;;;18.00;83.00;;;;;;5050991;28;20083;-76
2023/06/28 04:12:22;;;;;;;6.38;1.70;;;18.00;83.00;;;;;;5055525;28;20031;-76
2023/06/28 04:14:49;;;;;;;4.43;1.90;;;18.00;82.90;;;;;;5051682;28;20087;-75
2023/06/28 04:17:14;;;;;;;6.82;2.63;;;18.00;83.00;;;;;;5046057;28;20090;-77
2023/06/28 04:19:40;;;;;;;5.25;2.20;;;18.00;82.90;;;;;;5047738;28;20033;-77
2023/06/28 04:22:06;;;;;;;3.90;2.03;;;18.00;83.00;;;;;;5051436;28;20416;-77
2023/06/28 04:24:31;;;;;;;5.53;2.33;;;18.00;82.90;;;;;;5051380;28;20021;-76
2023/06/28 04:27:00;;;;;;;5.95;1.98;;;18.00;82.90;;;;;;5043618;28;20047;-76
2023/06/28 04:29:27;;;;;;;3.45;1.98;;;17.90;82.90;;;;;;5044454;28;20025;-76
2023/06/28 04:31:52;;;;;;;5.97;1.92;;;18.00;82.90;;;;;;5046468;28;20203;-76
2023/06/28 04:34:19;;;;;;;8.90;2.20;;;17.90;83.00;;;;;;5048558;28;20060;-77
2023/06/28 04:36:45;;;;;;;3.33;1.85;;;18.00;83.20;;;;;;5043383;28;20028;-77
2023/06/28 04:39:12;;;;;;;10.88;2.40;;;18.00;83.20;;;;;;5045074;28;20025;-77
2023/06/28 04:41:37;;;;;;;6.97;2.25;;;18.00;82.90;;;;;;5047315;28;20724;-77
2023/06/28 04:44:03;;;;;;;6.10;2.50;;;18.00;82.80;;;;;;5041914;28;20030;-77
2023/06/28 04:46:29;;;;;;;4.20;2.13;;;18.10;82.90;;;;;;5049160;28;20021;-76
2023/06/28 04:48:58;;;;;;;4.63;2.08;;;18.10;82.70;;;;;;5048560;28;20033;-76
2023/06/28 04:51:24;;;;;;;4.28;1.98;;;18.20;82.60;;;;;;5043903;28;20495;-76
2023/06/28 04:53:49;;;;;;;6.28;2.08;;;18.20;82.60;;;;;;5047063;28;20107;-77
2023/06/28 04:56:15;;;;;;;4.65;2.40;;;18.20;82.40;;;;;;5043702;28;20116;-77
2023/06/28 04:58:42;;;;;;;3.53;1.92;;;18.20;82.30;;;;;;5047164;28;21824;-77
2023/06/28 05:01:08;;;;;;;7.65;2.63;;;18.30;82.30;;;;;;5044104;28;20415;-77
2023/06/28 05:03:34;;;;;;;4.55;2.40;;;18.30;82.30;;;;;;5045939;28;20030;-77
2023/06/28 05:06:06;;;;;;;5.03;2.20;;;18.30;82.40;;;;;;5046553;28;20025;-77
2023/06/28 05:08:32;;;;;;;5.50;2.47;;;18.30;82.40;;;;;;5046741;28;20519;-77
2023/06/28 05:10:59;;;;;;;4.07;2.30;;;18.40;82.40;;;;;;5048495;28;20029;-76
2023/06/28 05:13:25;;;;;;;7.35;2.08;;;18.50;82.20;;;;;;5045637;28;20056;-76
2023/06/28 05:15:50;;;;;;;11.02;2.40;;;18.40;81.70;;;;;;5045833;28;20041;-76
2023/06/28 05:18:18;;;;;;;4.97;1.80;;;18.50;82.00;;;;;;5049066;28;20025;-76
2023/06/28 05:20:43;;;;;;;3.88;2.08;;;18.50;82.10;;;;;;5047464;28;20959;-78
2023/06/28 05:23:11;;;;;;;5.13;2.35;;;18.60;81.70;;;;;;5046729;28;20032;-76
2023/06/28 05:25:40;;;;;;;7.22;2.45;;;18.60;81.50;;;;;;5046444;28;20021;-76
2023/06/28 05:28:07;;;;;;;8.93;1.98;;;18.60;81.40;;;;;;5044923;28;20017;-77
2023/06/28 05:30:33;;;;;;;7.38;2.42;;;18.60;81.30;;;;;;5046798;28;20553;-76
2023/06/28 05:33:02;;;;;;;5.35;2.03;;;18.70;81.30;;;;;;5048976;28;20460;-76
2023/06/28 05:35:31;;;;;;;4.28;2.03;;;18.70;81.40;;;;;;5048103;28;20091;-76
2023/06/28 05:37:57;;;;;;;4.32;2.05;;;18.80;81.40;;;;;;5046849;28;20549;-77
2023/06/28 05:40:23;;;;;;;4.13;2.17;;;18.80;81.40;;;;;;5044258;28;20024;-76
2023/06/28 05:42:48;;;;;;;6.93;2.65;;;18.80;81.40;;;;;;5047613;28;20531;-77
2023/06/28 05:45:14;;;;;;;7.18;2.17;;;18.90;81.30;;;;;;5048085;28;20387;-77
2023/06/28 05:47:40;;;;;;;3.95;1.88;;;18.90;81.20;;;;;;5046281;28;20017;-77
2023/06/28 05:50:06;;;;;;;8.13;2.35;;;19.00;81.20;;;;;;5041171;28;20029;-69
2023/06/28 05:52:31;;;;;;;6.03;2.13;;;19.00;81.00;;;;;;5039104;28;20484;-69
2023/06/28 05:54:57;;;;;;;4.38;2.15;;;19.10;81.00;;;;;;5059534;28;20037;-69
2023/06/28 05:57:22;;;;;;;4.95;2.20;;;19.20;81.30;;;;;;5037701;28;20067;-68
2023/06/28 05:59:48;;;;;;;4.30;1.77;;;19.30;81.20;;;;;;5042389;28;20041;-68
2023/06/28 06:02:14;;;;;;;3.30;2.10;;;19.30;81.20;;;;;;5035293;28;20962;-68
2023/06/28 06:04:40;;;;;;;6.00;2.58;;;19.40;80.90;;;;;;5045756;28;20028;-69
2023/06/28 06:07:05;;;;;;;4.30;2.38;;;19.50;80.90;;;;;;5037510;28;20104;-69
2023/06/28 06:09:31;;;;;;;3.40;2.10;;;19.50;80.80;;;;;;5039375;28;20127;-67
2023/06/28 06:11:57;;;;;;;3.22;1.98;;;19.70;80.60;;;;;;5035733;28;20040;-68
2023/06/28 06:14:22;;;;;;;5.63;2.10;;;19.70;79.80;;;;;;5038919;28;20449;-67
2023/06/28 06:16:48;;;;;;;5.47;1.92;;;19.70;79.60;;;;;;5040657;28;20029;-68
2023/06/28 06:19:13;;;;;;;4.38;1.88;;;19.80;79.70;;;;;;5037754;28;20412;-67
2023/06/28 06:21:39;;;;;;;5.32;1.85;;;19.80;79.00;;;;;;5041837;28;20056;-67
2023/06/28 06:24:07;;;;;;;6.22;2.15;;;19.90;79.20;;;;;;5046236;28;20426;-74
2023/06/28 06:26:34;;;;;;;7.53;2.35;;;19.90;79.40;;;;;;5051124;28;20057;-74
2023/06/28 06:29:00;;;;;;;3.30;1.95;;;19.90;79.20;;;;;;5054780;28;20060;-73
2023/06/28 06:31:27;;;;;;;5.05;1.80;;;20.00;79.40;;;;;;5054630;28;20604;-74
2023/06/28 06:33:52;;;;;;;3.85;2.33;;;20.00;79.00;;;;;;5050131;28;20040;-76
2023/06/28 06:36:18;;;;;;;3.97;1.92;;;20.00;78.90;;;;;;5054979;28;20059;-75
2023/06/28 06:38:43;;;;;;;4.68;1.48;;;20.00;78.60;;;;;;5049776;28;20036;-75
2023/06/28 06:41:09;;;;;;;6.43;1.95;;;20.00;78.00;;;;;;5053209;28;20028;-76
2023/06/28 06:43:35;;;;;;;5.97;1.90;;;20.00;78.00;;;;;;5052816;28;20376;-76
2023/06/28 06:46:00;;;;;;;6.40;1.80;;;20.10;77.90;;;;;;5046303;28;20021;-75
2023/06/28 06:48:26;;;;;;;7.53;1.80;;;20.20;77.30;;;;;;5056909;28;20476;-76
2023/06/28 06:50:52;;;;;;;4.75;1.83;;;20.20;77.10;;;;;;5048954;28;20029;-76
2023/06/28 06:53:17;;;;;;;5.28;1.73;;;20.20;76.70;;;;;;5047471;28;20040;-74
2023/06/28 06:55:43;;;;;;;4.13;1.95;;;20.20;76.60;;;;;;5059928;28;20024;-76
2023/06/28 06:58:08;;;;;;;3.88;1.75;;;20.30;76.20;;;;;;5061183;28;20028;-76
2023/06/28 07:00:34;;;;;;;7.10;2.10;;;20.30;75.90;;;;;;5047429;28;20032;-76
2023/06/28 07:03:00;;;;;;;3.63;1.73;;;20.30;75.20;;;;;;5046575;28;20049;-72
2023/06/28 07:05:25;;;;;;;3.05;1.63;;;20.30;74.90;;;;;;5045684;28;20086;-71
2023/06/28 07:07:51;;;;;;;4.93;2.35;;;20.30;74.40;;;;;;5044144;28;20375;-75
2023/06/28 07:10:17;;;;;;;5.70;1.90;;;20.30;73.90;;;;;;5048109;28;20033;-72
2023/06/28 07:12:42;;;;;;;4.78;1.80;;;20.20;73.60;;;;;;5042339;28;20325;-72
2023/06/28 07:15:09;;;;;;;4.35;2.13;;;20.30;73.50;;;;;;5040460;28;20036;-73
2023/06/28 07:17:35;;;;;;;4.85;1.80;;;20.30;73.20;;;;;;5049052;28;20368;-72
2023/06/28 07:20:00;;;;;;;4.75;2.00;;;20.40;72.80;;;;;;5050296;28;20031;-72
2023/06/28 07:22:27;;;;;;;5.45;1.77;;;20.40;73.00;;;;;;5055351;28;20048;-72
2023/06/28 07:24:52;;;;;;;5.75;1.88;;;20.40;72.40;;;;;;5053793;28;20024;-73
2023/06/28 07:27:18;;;;;;;6.05;1.73;;;20.30;71.40;;;;;;5054025;28;20021;-72
2023/06/28 07:29:44;;;;;;;5.55;2.10;;;20.30;71.60;;;;;;5056236;28;20498;-73
2023/06/28 07:32:09;;;;;;;5.15;2.42;;;20.30;71.90;;;;;;5051183;28;20120;-72
2023/06/28 07:34:37;;;;;;;10.18;1.95;;;20.30;71.40;;;;;;5055746;28;20028;-72
2023/06/28 07:37:05;;;;;;;4.75;1.67;;;20.30;71.50;;;;;;5051393;28;20025;-73
2023/06/28 07:39:32;;;;;;;6.80;1.70;;;20.40;71.60;;;;;;5052995;28;20096;-72
2023/06/28 07:41:58;;;;;;;13.48;2.38;;;20.40;71.70;;;;;;5050679;28;20124;-72
2023/06/28 07:44:23;;;;;;;7.53;2.28;;;20.40;71.60;;;;;;5053022;28;20437;-72
2023/06/28 07:46:49;;;;;;;6.45;1.83;;;20.50;71.70;;;;;;5053446;28;20025;-72
2023/06/28 07:49:14;;;;;;;5.65;1.85;;;20.50;71.80;;;;;;5057033;28;20025;-72
2023/06/28 07:51:40;;;;;;;4.00;2.13;;;20.60;71.50;;;;;;5052166;28;20085;-72
2023/06/28 07:54:06;;;;;;;7.25;2.22;;;20.60;71.40;;;;;;5054619;28;20029;-73
2023/06/28 07:56:32;;;;;;;5.30;1.90;;;20.60;71.00;;;;;;5052445;28;20029;-72
2023/06/28 07:59:00;;;;;;;6.93;2.08;;;20.60;70.40;;;;;;5052958;28;20445;-72
2023/06/28 08:01:26;;;;;;;6.43;1.92;;;20.60;70.70;;;;;;5056734;22;20033;-71
2023/06/28 08:03:52;;;;;;;4.72;1.88;;;20.70;70.40;;;;;;5032987;28;20506;-71
2023/06/28 08:06:18;;;;;;;4.75;1.85;;;20.80;70.10;;;;;;5033132;28;20028;-72
2023/06/28 08:08:43;;;;;;;2.70;1.80;;;20.70;70.20;;;;;;5032820;28;20384;-72
2023/06/28 08:11:09;;;;;;;6.75;2.22;;;20.70;70.80;;;;;;5032805;28;20484;-72
2023/06/28 08:13:34;;;;;;;3.17;1.98;;;20.80;71.00;;;;;;5032771;28;20034;-72
2023/06/28 08:16:00;;;;;;;5.90;2.00;;;20.80;70.70;;;;;;5032932;28;20029;-73
2023/06/28 08:18:26;;;;;;;4.43;1.50;;;21.00;71.00;;;;;;5032775;28;20460;-72
2023/06/28 08:20:53;;;;;;;4.93;1.88;;;21.00;70.40;;;;;;5032225;28;20032;-72
2023/06/28 08:23:18;;;;;;;5.63;1.77;;;21.10;70.10;;;;;;5032641;28;20029;-72
2023/06/28 08:25:44;;;;;;;5.95;1.73;;;21.10;70.10;;;;;;5032469;28;20021;-72
2023/06/28 08:28:10;;;;;;;7.40;1.70;;;21.10;70.00;;;;;;5032548;28;20022;-73
2023/06/28 08:30:35;;;;;;;10.32;1.77;;;21.20;70.30;;;;;;5031271;28;20387;-73
2023/06/28 08:33:02;;;;;;;5.22;1.92;;;21.10;70.10;;;;;;5032413;28;20057;-71
2023/06/28 08:35:28;;;;;;;4.97;1.95;;;21.20;70.30;;;;;;5032374;28;20034;-72
2023/06/28 08:37:53;;;;;;;5.88;1.70;;;21.10;69.80;;;;;;5032087;28;20035;-71
2023/06/28 08:40:19;;;;;;;3.33;1.52;;;21.10;69.20;;;;;;5032142;28;20028;-72
2023/06/28 08:42:46;;;;;;;4.93;1.83;;;21.00;69.00;;;;;;5032134;28;20026;-71
2023/06/28 08:45:13;;;;;;;5.40;1.52;;;21.00;69.80;;;;;;5032302;28;20518;-72
2023/06/28 08:47:41;;;;;;;5.10;1.70;;;21.00;70.10;;;;;;5031053;28;20025;-71
2023/06/28 08:50:08;;;;;;;7.70;1.70;;;21.00;70.50;;;;;;5030381;28;20079;-71
2023/06/28 08:52:35;;;;;;;5.60;1.88;;;21.10;70.40;;;;;;5030527;28;20032;-72
2023/06/28 08:55:03;;;;;;;2.75;1.52;;;21.10;70.20;;;;;;5031928;28;20018;-72
2023/06/28 08:57:29;;;;;;;3.97;1.60;;;21.10;70.30;;;;;;5032168;28;20476;-72
2023/06/28 08:59:55;;;;;;;4.57;1.58;;;21.20;70.60;;;;;;5031761;28;20377;-72
2023/06/28 09:02:23;;;;;;;5.25;1.98;;;21.20;70.50;;;;;;5030607;28;20144;-72
2023/06/28 09:04:50;;;;;;;5.38;1.58;;;21.20;70.00;;;;;;5030365;28;20017;-72
2023/06/28 09:07:18;;;;;;;3.45;1.35;;;21.20;70.00;;;;;;5031310;28;20025;-71
2023/06/28 09:09:50;;;;;;;3.55;1.80;;;21.20;69.00;;;;;;5031512;28;20026;-71
2023/06/28 09:12:16;;;;;;;5.93;2.28;;;21.20;69.20;;;;;;5031512;28;20605;-73
2023/06/28 09:14:42;;;;;;;6.15;2.10;;;21.30;69.50;;;;;;5030293;28;20108;-71
2023/06/28 09:17:08;;;;;;;3.88;1.70;;;21.30;69.40;;;;;;5030571;28;20124;-71
2023/06/28 09:19:35;;;;;;;5.80;2.22;;;21.40;69.40;;;;;;5031625;28;20040;-72
2023/06/28 09:22:04;;;;;;;5.15;1.80;;;21.40;69.20;;;;;;5031851;28;20061;-72
2023/06/28 09:24:34;;;;;;;6.18;1.90;;;21.40;69.30;;;;;;5030423;28;20108;-71
2023/06/28 09:27:07;;;;;;;4.47;1.77;;;21.60;69.30;;;;;;5031605;28;20081;-71
2023/06/28 09:29:34;;;;;;;3.60;2.10;;;21.70;69.00;;;;;;5031328;28;20483;-72
2023/06/28 09:32:02;;;;;;;3.40;1.70;;;21.80;68.60;;;;;;5031482;28;20025;-70
2023/06/28 09:34:28;;;;;;;2.58;1.63;;;21.90;68.40;;;;;;5031441;28;20472;-72
2023/06/28 09:36:56;;;;;;;4.70;2.00;;;22.00;67.80;;;;;;5029845;28;20120;-72
2023/06/28 09:39:22;;;;;;;4.13;1.80;;;22.10;67.80;;;;;;5031102;28;20547;-72
2023/06/28 09:41:49;;;;;;;5.85;1.67;;;22.20;67.80;;;;;;5031675;28;20104;-72
2023/06/28 09:44:16;;;;;;;4.07;1.70;;;22.30;67.50;;;;;;5031374;28;20112;-73
2023/06/28 09:46:43;;;;;;;5.07;1.73;;;22.40;67.10;;;;;;5031113;28;20057;-72
2023/06/28 09:49:22;;;;;;;4.50;1.88;;;22.30;66.70;;;;;;5031049;28;20079;-74
2023/06/28 09:52:00;;;;;;;6.57;1.80;;;22.30;66.60;;;;;;5030983;28;20033;-72
2023/06/28 09:54:44;;;;;;;3.83;1.45;;;22.20;66.70;;;;;;5031000;28;20026;-72
2023/06/28 09:57:11;;;;;;;4.60;1.35;;;22.30;67.30;;;;;;5029850;28;20040;-72
2023/06/28 09:59:37;;;;;;;2.83;1.55;;;22.40;67.00;;;;;;5031216;28;20084;-72
2023/06/28 10:02:07;;;;;;;2.70;1.50;;;22.40;66.40;;;;;;5030101;28;20577;-72
2023/06/28 10:04:35;;;;;;;4.65;1.30;;;22.50;66.50;;;;;;5029701;28;20367;-72
2023/06/28 10:07:02;;;;;;;5.78;1.65;;;22.60;64.90;;;;;;5030900;28;20017;-72
2023/06/28 10:09:35;;;;;;;5.35;1.92;;;22.60;65.00;;;;;;5030855;28;20029;-72
2023/06/28 10:12:08;;;;;;;5.60;2.03;;;22.70;65.50;;;;;;5029373;28;20030;-72
2023/06/28 10:14:38;;;;;;;7.85;2.40;;;22.70;65.50;;;;;;5030844;28;20391;-72
2023/06/28 10:17:05;;;;;;;4.13;1.33;;;22.80;65.80;;;;;;5030563;28;20026;-72
2023/06/28 10:19:32;;;;;;;4.18;1.55;;;23.00;65.70;;;;;;5029332;28;20116;-72
2023/06/28 10:21:59;;;;;;;6.15;1.90;;;23.00;65.60;;;;;;5030910;28;20022;-72
2023/06/28 10:24:31;;;;;;;4.20;1.63;;;23.20;65.40;;;;;;5029191;28;20510;-72
2023/06/28 10:27:00;;;;;;;3.38;1.77;;;23.30;65.60;;;;;;5030693;28;20087;-72
2023/06/28 10:29:25;;;;;;;4.45;1.77;;;23.40;65.40;;;;;;5029323;28;20025;-72
2023/06/28 10:31:52;;;;;;;4.25;1.60;;;23.40;65.40;;;;;;5029234;28;20088;-72
2023/06/28 10:34:19;;;;;;;5.43;2.33;;;23.60;65.00;;;;;;5030635;28;20061;-72
2023/06/28 10:36:45;;;;;;;5.43;1.92;;;23.60;64.70;;;;;;5030620;28;20032;-71
2023/06/28 10:39:10;;;;;;;4.38;1.58;;;23.70;64.50;;;;;;5030486;28;20030;-71
2023/06/28 10:41:37;;;;;;;5.47;1.90;;;23.60;64.30;;;;;;5030652;28;20029;-71
2023/06/28 10:44:06;;;;;;;3.13;1.58;;;23.60;64.60;;;;;;5030415;28;20022;-71
2023/06/28 10:46:32;;;;;;;3.13;1.75;;;23.50;65.00;;;;;;5029130;28;20456;-71
2023/06/28 10:49:03;;;;;;;6.05;2.22;;;23.50;65.30;;;;;;5030392;28;20063;-72
2023/06/28 10:51:33;;;;;;;4.35;1.75;;;23.40;65.60;;;;;;5030442;28;20021;-72
2023/06/28 10:54:15;;;;;;;7.07;1.80;;;23.50;65.40;;;;;;5030363;28;20025;-71
2023/06/28 10:56:48;;;;;;;2.95;1.50;;;23.60;65.70;;;;;;5030758;28;20072;-72
2023/06/28 10:59:13;;;;;;;7.72;1.70;;;23.70;65.60;;;;;;5030099;28;20029;-72
2023/06/28 11:01:52;;;;;;;4.85;2.05;;;23.90;65.60;;;;;;5030148;28;20510;-72
2023/06/28 11:04:18;;;;;;;4.47;1.27;;;24.00;64.60;;;;;;5030603;28;20033;-72
2023/06/28 11:06:45;;;;;;;5.47;1.67;;;24.10;65.00;;;;;;5030490;28;20026;-72
2023/06/28 11:09:14;;;;;;;3.33;1.73;;;24.10;64.60;;;;;;5028801;28;20069;-73
2023/06/28 11:11:41;;;;;;;5.03;1.88;;;24.20;64.40;;;;;;5028892;28;20084;-72
2023/06/28 11:14:36;;;;;;;3.40;1.40;;;24.20;64.30;;;;;;5032720;28;20026;-72
2023/06/28 11:17:22;;;;;;;3.90;1.40;;;24.10;63.70;;;;;;5025199;28;20072;-72
2023/06/28 11:19:48;;;;;;;4.53;1.80;;;24.10;63.80;;;;;;5032119;28;20033;-73
2023/06/28 11:22:15;;;;;;;7.32;2.00;;;24.00;63.70;;;;;;5033617;28;20022;-72
2023/06/28 11:24:43;;;;;;;2.53;1.58;;;24.00;63.90;;;;;;5033870;28;20021;-72
2023/06/28 11:27:13;;;;;;;3.38;1.70;;;24.00;64.00;;;;;;5033845;28;20021;-72
2023/06/28 11:29:57;;;;;;;3.83;1.60;;;23.90;64.20;;;;;;5033601;28;20025;-73
2023/06/28 11:32:28;;;;;;;4.78;1.95;;;24.00;64.40;;;;;;5032407;28;20021;-72
2023/06/28 11:34:56;;;;;;;3.45;1.85;;;24.00;64.50;;;;;;5033537;28;20034;-72
2023/06/28 11:37:22;;;;;;;4.97;1.85;;;24.10;64.30;;;;;;5032184;28;20395;-72
2023/06/28 11:39:49;;;;;;;4.57;1.65;;;24.00;63.80;;;;;;5033328;28;20462;-72
2023/06/28 11:42:16;;;;;;;3.05;1.63;;;23.80;63.80;;;;;;5032177;28;20075;-72
2023/06/28 11:44:52;;;;;;;2.50;1.60;;;23.80;64.50;;;;;;5033633;28;20538;-73
2023/06/28 11:47:22;;;;;;;3.40;1.77;;;23.80;64.70;;;;;;5033535;28;20393;-73
2023/06/28 11:49:49;;;;;;;3.63;1.98;;;23.80;64.70;;;;;;5033628;28;20036;-72
2023/06/28 11:52:20;;;;;;;6.93;2.42;;;23.80;64.60;;;;;;5033655;28;20026;-72
2023/06/28 11:54:46;;;;;;;3.97;1.92;;;23.80;64.50;;;;;;5032169;28;20144;-72
2023/06/28 11:57:12;;;;;;;5.95;1.67;;;23.80;64.40;;;;;;5033407;28;20068;-72
2023/06/28 11:59:44;;;;;;;9.18;1.92;;;23.80;64.60;;;;;;5033517;28;20045;-73
2023/06/28 12:02:10;;;;;;;8.02;1.95;;;24.00;64.90;;;;;;5032887;28;20021;-72
2023/06/28 12:04:38;;;;;;;3.35;1.40;;;24.10;64.60;;;;;;5033143;28;20029;-73
2023/06/28 12:07:05;;;;;;;3.28;1.33;;;24.10;63.60;;;;;;5033387;28;20083;-73
2023/06/28 12:09:32;;;;;;;4.05;1.60;;;24.20;63.90;;;;;;5032803;28;20573;-73
2023/06/28 12:12:05;;;;;;;3.17;1.52;;;24.30;64.00;;;;;;5031460;28;20109;-73
2023/06/28 12:14:38;;;;;;;3.28;1.60;;;24.40;63.20;;;;;;5032987;28;20075;-73
2023/06/28 12:17:03;;;;;;;3.75;1.25;;;24.50;63.00;;;;;;5032897;28;20088;-73
2023/06/28 12:19:35;;;;;;;3.75;1.88;;;24.50;62.40;;;;;;5032633;28;20029;-73
2023/06/28 12:22:02;;;;;;;2.55;1.40;;;24.60;62.40;;;;;;5031085;28;20022;-73
2023/06/28 12:24:28;;;;;;;4.03;1.40;;;24.50;62.70;;;;;;5031067;28;20072;-73
2023/06/28 12:26:56;;;;;;;4.97;1.65;;;24.60;63.10;;;;;;5032576;28;20021;-73
2023/06/28 12:29:23;;;;;;;2.75;1.52;;;24.60;62.70;;;;;;5032234;28;20392;-74
2023/06/28 12:31:54;;;;;;;6.00;1.98;;;24.70;62.60;;;;;;5033197;28;20522;-74
2023/06/28 12:34:26;;;;;;;5.90;2.13;;;24.80;62.60;;;;;;5032610;28;20105;-73
2023/06/28 12:36:53;;;;;;;6.90;1.70;;;24.90;62.60;;;;;;5032463;28;20112;-73
2023/06/28 12:39:31;;;;;;;4.13;1.90;;;25.00;62.30;;;;;;5031172;28;20033;-72
2023/06/28 12:41:59;;;;;;;3.30;1.60;;;25.00;62.20;;;;;;5032443;28;20025;-72
2023/06/28 12:44:27;;;;;;;3.58;1.60;;;24.90;61.90;;;;;;5032141;28;20092;-72